createdAt,value
2018-02-02T00:03:32.617Z,13
2018-02-02T00:13:32.383Z,12
2018-02-02T00:23:32.635Z,16
2018-02-02T00:33:33.063Z,17
2018-02-02T00:43:32.462Z,17
2018-02-02T00:53:32.453Z,21
2018-02-02T01:03:32.494Z,17
2018-02-02T01:13:32.471Z,21
2018-02-02T01:23:32.489Z,19
2018-02-02T01:33:32.417Z,16
2018-02-02T01:43:32.566Z,18
2018-02-02T01:53:32.498Z,18
2018-02-02T02:03:32.412Z,18
2018-02-02T02:13:32.568Z,16
2018-02-02T02:23:32.424Z,16
2018-02-02T02:33:32.566Z,17
2018-02-02T02:43:32.494Z,13
2018-02-02T02:53:32.561Z,15
2018-02-02T03:03:32.568Z,17
2018-02-02T03:13:32.559Z,16
2018-02-02T03:23:32.559Z,16
2018-02-02T03:33:32.617Z,16
2018-02-02T03:43:32.587Z,21
2018-02-02T03:53:32.643Z,17
2018-02-02T04:03:32.614Z,20
2018-02-02T04:13:32.584Z,19
2018-02-02T04:23:32.646Z,23
2018-02-02T04:33:32.612Z,26
2018-02-02T04:43:32.666Z,21
2018-02-02T04:53:32.568Z,23
2018-02-02T05:03:32.654Z,23
2018-02-02T05:13:32.619Z,19
2018-02-02T05:23:32.748Z,18
2018-02-02T05:33:32.675Z,18
2018-02-02T05:43:32.705Z,17
2018-02-02T05:53:32.723Z,17
2018-02-02T06:03:32.654Z,14
2018-02-02T06:13:32.712Z,14
2018-02-02T06:23:32.670Z,13
2018-02-02T06:33:32.744Z,16
2018-02-02T06:43:32.657Z,17
2018-02-02T06:53:32.791Z,18
2018-02-02T07:03:32.685Z,18
2018-02-02T07:13:32.800Z,18
2018-02-02T07:23:32.661Z,18
2018-02-02T07:33:32.688Z,15
2018-02-02T07:43:32.862Z,16
2018-02-02T07:53:32.768Z,14
2018-02-02T08:03:32.765Z,14
2018-02-02T08:13:32.729Z,10
2018-02-02T08:23:32.794Z,9
2018-02-02T08:33:32.787Z,11
2018-02-02T08:43:32.834Z,13
2018-02-02T08:53:32.830Z,15
2018-02-02T09:03:32.826Z,10
2018-02-02T09:13:32.789Z,11
2018-02-02T09:23:32.939Z,12
2018-02-02T09:33:33.208Z,13
2018-02-02T09:43:32.931Z,13
2018-02-02T09:53:32.870Z,11
2018-02-02T10:03:32.874Z,9
2018-02-02T10:13:34.095Z,10
2018-02-02T10:23:32.856Z,9
2018-02-02T10:33:32.983Z,7
2018-02-02T10:43:32.945Z,6
2018-02-02T10:53:32.977Z,7
2018-02-02T11:03:32.991Z,7
2018-02-02T11:13:33.042Z,6
2018-02-02T11:23:33.014Z,6
2018-02-02T11:33:33.148Z,6
2018-02-02T11:43:33.616Z,9
2018-02-02T11:53:33.122Z,9
2018-02-02T12:03:32.953Z,8
2018-02-02T12:13:33.018Z,6
2018-02-02T12:23:32.909Z,5
2018-02-02T12:33:33.052Z,5
2018-02-02T12:43:33.046Z,5
2018-02-02T12:53:33.061Z,4
2018-02-02T13:03:33.112Z,2
2018-02-02T13:13:33.093Z,4
2018-02-02T13:23:33.081Z,3
2018-02-02T13:33:33.282Z,7
2018-02-02T13:43:33.056Z,10
2018-02-02T13:53:33.062Z,6
2018-02-02T14:03:33.161Z,5
2018-02-02T14:13:33.149Z,5
2018-02-02T14:23:33.210Z,5
2018-02-02T14:33:33.053Z,9
2018-02-02T14:43:33.197Z,6
2018-02-02T14:53:33.232Z,5
2018-02-02T15:03:33.149Z,8
2018-02-02T15:13:33.231Z,6
2018-02-02T15:23:33.267Z,3
2018-02-02T15:33:35.023Z,5
2018-02-02T15:43:33.272Z,5
2018-02-02T15:53:33.410Z,5
2018-02-02T16:03:33.165Z,6
2018-02-02T16:13:33.232Z,4
2018-02-02T16:23:34.286Z,2
2018-02-02T16:33:33.277Z,2
2018-02-02T16:43:33.165Z,2
2018-02-02T16:53:33.276Z,4
2018-02-02T17:03:33.212Z,4
2018-02-02T17:13:33.337Z,4
2018-02-02T17:23:33.279Z,3
2018-02-02T17:33:33.358Z,2
2018-02-02T17:43:33.292Z,2
2018-02-02T17:53:33.330Z,2
2018-02-02T18:03:33.248Z,2
2018-02-02T18:13:33.375Z,2
2018-02-02T18:23:33.345Z,3
2018-02-02T18:33:33.591Z,4
2018-02-02T18:43:46.709Z,3
2018-02-02T18:53:33.427Z,4
2018-02-02T19:03:33.604Z,5
2018-02-02T19:13:40.245Z,5
2018-02-02T19:23:44.990Z,4
2018-02-02T19:33:33.678Z,6
2018-02-02T19:43:33.538Z,5
2018-02-02T19:53:33.375Z,5
2018-02-02T20:03:33.507Z,6
2018-02-02T20:13:33.401Z,5
2018-02-02T20:23:33.504Z,5
2018-02-02T20:33:33.507Z,6
2018-02-02T20:43:33.526Z,8
2018-02-02T20:53:33.412Z,8
2018-02-02T21:03:33.357Z,7
2018-02-02T21:13:33.648Z,9
2018-02-02T21:23:33.395Z,10
2018-02-02T21:33:33.508Z,8
2018-02-02T21:43:33.444Z,9
2018-02-02T21:53:33.833Z,7
2018-02-02T22:03:33.549Z,8
2018-02-02T22:13:33.501Z,13
2018-02-02T22:23:33.562Z,13
2018-02-02T22:33:33.408Z,9
2018-02-02T22:43:33.565Z,11
2018-02-02T22:53:33.961Z,10
2018-02-02T23:03:33.937Z,10
2018-02-02T23:13:33.643Z,10
2018-02-02T23:23:33.729Z,11
2018-02-02T23:33:34.243Z,10
2018-02-02T23:50:02.274Z,8
2018-02-02T23:53:33.809Z,10
